Time;durP1;ratioP1;P1;durP2;ratioP2;P2;SDS_P1;SDS_P2;PMS_P1;PMS_P2;Temp;Humidity;BMP_temperature;BMP_pressure;BME280_temperature;BME280_humidity;BME280_pressure;Samples;Min_cycle;Max_cycle;Signal;HPM_P1;HPM_P2
2022/08/22 00:01:52;;;;;;;4.87;3.60;;;18.80;99.90;;;;;;4928463;29;20468;-73
2022/08/22 00:04:56;;;;;;;4.30;3.20;;;18.80;99.90;;;;;;4925266;29;20487;-73
2022/08/22 00:08:06;;;;;;;5.37;3.83;;;18.80;99.90;;;;;;4928425;29;21003;-73
2022/08/22 00:11:29;;;;;;;4.40;3.30;;;18.80;99.90;;;;;;4929335;28;21053;-73
2022/08/22 00:14:44;;;;;;;6.00;3.47;;;18.80;99.90;;;;;;4925622;29;20456;-73
2022/08/22 00:17:41;;;;;;;5.23;3.80;;;18.80;99.90;;;;;;4927991;29;20919;-73
2022/08/22 00:20:44;;;;;;;3.80;3.50;;;18.80;99.90;;;;;;4927789;29;21032;-73
2022/08/22 00:23:47;;;;;;;4.77;3.60;;;18.70;99.90;;;;;;4930404;29;20623;-73
2022/08/22 00:26:45;;;;;;;5.50;3.60;;;18.70;99.90;;;;;;4930686;29;20470;-72
2022/08/22 00:29:39;;;;;;;4.53;3.60;;;18.70;99.90;;;;;;4929246;29;20868;-72
2022/08/22 00:33:00;;;;;;;4.60;3.60;;;18.70;99.90;;;;;;4931180;29;21288;-72
2022/08/22 00:35:59;;;;;;;6.20;4.27;;;18.60;99.90;;;;;;4933915;28;20504;-72
2022/08/22 00:39:00;;;;;;;3.63;3.27;;;18.70;99.90;;;;;;4932814;29;20452;-72
2022/08/22 00:42:22;;;;;;;4.90;3.67;;;18.60;99.90;;;;;;4931972;29;20971;-72
2022/08/22 00:46:00;;;;;;;3.67;3.33;;;18.60;99.90;;;;;;4915803;29;21011;-72
2022/08/22 00:49:39;;;;;;;4.07;3.33;;;18.70;99.90;;;;;;4933591;29;20579;-75
2022/08/22 00:52:57;;;;;;;9.00;3.50;;;18.70;99.90;;;;;;4932571;29;21041;-74
2022/08/22 00:56:05;;;;;;;4.13;3.17;;;18.70;99.90;;;;;;4933776;28;20460;-75
2022/08/22 00:59:27;;;;;;;5.23;3.73;;;18.70;99.90;;;;;;4931082;29;20491;-74
2022/08/22 01:02:54;;;;;;;4.27;3.87;;;18.70;99.90;;;;;;4931486;29;20496;-74
2022/08/22 01:06:06;;;;;;;5.77;3.53;;;18.60;99.90;;;;;;4931996;29;20542;-74
2022/08/22 01:09:10;;;;;;;4.20;3.70;;;18.70;99.90;;;;;;4933645;28;20979;-74
2022/08/22 01:12:38;;;;;;;4.50;3.67;;;18.70;99.90;;;;;;4933780;29;20916;-74
2022/08/22 01:15:44;;;;;;;4.77;3.73;;;18.70;99.90;;;;;;4932820;29;20464;-74
2022/08/22 01:18:56;;;;;;;7.90;3.83;;;18.60;99.90;;;;;;4932337;29;20444;-74
2022/08/22 01:22:35;;;;;;;6.70;3.93;;;18.70;99.90;;;;;;4932639;29;20828;-74
2022/08/22 01:26:18;;;;;;;4.87;3.60;;;18.60;99.90;;;;;;4933558;29;21323;-75
2022/08/22 01:29:53;;;;;;;4.60;3.87;;;18.60;99.90;;;;;;4949539;29;20459;-74
2022/08/22 01:33:27;;;;;;;4.50;4.10;;;18.60;99.90;;;;;;4951306;29;20506;-74
2022/08/22 01:37:06;;;;;;;4.33;3.90;;;18.60;99.90;;;;;;4934191;29;20554;-74
2022/08/22 01:40:51;;;;;;;4.60;3.47;;;18.60;99.90;;;;;;4939476;29;20538;-75
2022/08/22 01:44:07;;;;;;;5.30;4.00;;;18.60;99.90;;;;;;4938409;29;20939;-75
2022/08/22 01:47:11;;;;;;;3.87;3.47;;;18.60;99.90;;;;;;4931353;29;21007;-75
2022/08/22 01:50:20;;;;;;;3.50;3.20;;;18.60;99.90;;;;;;4929080;29;20467;-74
2022/08/22 01:53:25;;;;;;;4.20;3.80;;;18.60;99.90;;;;;;4932138;29;20598;-74
2022/08/22 01:56:26;;;;;;;5.23;3.70;;;18.60;99.90;;;;;;4932273;29;20468;-74
2022/08/22 01:59:41;;;;;;;4.33;3.93;;;18.60;99.90;;;;;;4931554;29;20551;-74
2022/08/22 02:02:50;;;;;;;5.80;3.80;;;18.60;99.90;;;;;;4932417;28;20452;-75
2022/08/22 02:05:58;;;;;;;5.27;4.10;;;18.50;99.90;;;;;;4930998;28;20534;-75
2022/08/22 02:09:29;;;;;;;5.60;3.80;;;18.50;99.90;;;;;;4933671;28;20454;-75
2022/08/22 02:12:31;;;;;;;4.70;4.30;;;18.50;99.90;;;;;;4933313;29;20507;-74
2022/08/22 02:15:41;;;;;;;4.40;4.00;;;18.50;99.90;;;;;;4929641;29;20496;-74
2022/08/22 02:18:47;;;;;;;3.93;3.40;;;18.50;99.90;;;;;;4931899;29;20485;-74
2022/08/22 02:21:50;;;;;;;4.63;3.73;;;18.50;99.90;;;;;;4931918;29;20455;-74
2022/08/22 02:25:06;;;;;;;6.17;4.30;;;18.50;99.90;;;;;;4932676;28;20484;-74
2022/08/22 02:28:08;;;;;;;4.73;4.33;;;18.50;99.90;;;;;;4931674;29;20479;-75
2022/08/22 02:31:08;;;;;;;6.00;4.73;;;18.50;99.90;;;;;;4932131;29;20462;-74
2022/08/22 02:34:02;;;;;;;5.80;4.20;;;18.50;99.90;;;;;;4931883;28;21612;-75
2022/08/22 02:36:57;;;;;;;4.33;3.87;;;18.50;99.90;;;;;;4931980;29;20555;-74
2022/08/22 02:39:56;;;;;;;5.73;4.47;;;18.50;99.90;;;;;;4930487;29;20459;-74
2022/08/22 02:43:04;;;;;;;6.07;4.40;;;18.40;99.90;;;;;;4931990;29;20492;-75
2022/08/22 02:46:04;;;;;;;7.00;4.40;;;18.40;99.90;;;;;;4931150;29;20483;-72
2022/08/22 02:49:05;;;;;;;4.57;4.13;;;18.40;99.90;;;;;;4930356;29;20456;-73
2022/08/22 02:52:07;;;;;;;5.17;4.00;;;18.50;99.90;;;;;;4929799;29;20467;-72
2022/08/22 02:55:24;;;;;;;5.87;3.87;;;18.50;99.90;;;;;;4930958;29;21020;-72
2022/08/22 02:58:37;;;;;;;4.87;3.90;;;18.50;99.90;;;;;;4931258;29;20460;-72
2022/08/22 03:01:51;;;;;;;5.77;4.30;;;18.50;99.90;;;;;;4931604;29;20550;-75
2022/08/22 03:04:59;;;;;;;6.10;3.67;;;18.50;99.90;;;;;;4927371;29;20483;-75
2022/08/22 03:08:12;;;;;;;4.93;4.00;;;18.50;99.90;;;;;;4925954;29;21083;-75
2022/08/22 03:11:21;;;;;;;5.20;4.00;;;18.50;99.90;;;;;;4928457;29;20513;-74
2022/08/22 03:14:22;;;;;;;5.90;4.63;;;18.40;99.90;;;;;;4930176;29;20452;-75
2022/08/22 03:17:47;;;;;;;4.40;3.77;;;18.40;99.90;;;;;;4931664;28;20471;-75
2022/08/22 03:20:43;;;;;;;6.20;3.80;;;18.40;99.90;;;;;;4930581;29;20503;-72
2022/08/22 03:23:45;;;;;;;5.87;4.23;;;18.40;99.90;;;;;;4931188;29;20464;-73
2022/08/22 03:27:18;;;;;;;4.47;4.07;;;18.40;99.90;;;;;;4930222;29;20487;-72
2022/08/22 03:31:13;;;;;;;5.77;4.10;;;18.40;99.90;;;;;;4928849;29;20526;-72
2022/08/22 03:34:30;;;;;;;7.03;3.97;;;18.40;99.90;;;;;;4930640;29;20485;-72
2022/08/22 03:37:49;;;;;;;4.43;3.57;;;18.40;99.90;;;;;;4930708;29;20539;-73
2022/08/22 03:44:44;;;;;;;5.93;4.43;;;18.40;99.90;;;;;;4929529;29;21046;-72
2022/08/22 03:48:05;;;;;;;5.17;4.00;;;18.30;99.90;;;;;;4930244;29;21086;-72
2022/08/22 03:51:48;;;;;;;6.13;3.60;;;18.40;99.90;;;;;;4929205;29;20463;-72
2022/08/22 03:55:16;;;;;;;5.93;3.80;;;18.40;99.90;;;;;;4931305;28;20598;-73
2022/08/22 03:58:44;;;;;;;5.03;3.50;;;18.40;99.90;;;;;;4929546;29;20615;-72
2022/08/22 04:02:09;;;;;;;5.97;3.93;;;18.40;99.90;;;;;;4926701;29;20463;-72
2022/08/22 04:05:54;;;;;;;6.10;4.20;;;18.40;99.90;;;;;;4928921;28;20515;-72
2022/08/22 04:09:10;;;;;;;6.67;3.63;;;18.40;99.90;;;;;;4930617;29;20514;-72
2022/08/22 04:12:29;;;;;;;4.73;4.07;;;18.40;99.90;;;;;;4932172;29;20463;-72
2022/08/22 04:15:59;;;;;;;6.00;4.40;;;18.40;99.90;;;;;;4932030;29;20574;-72
2022/08/22 04:19:19;;;;;;;11.10;4.80;;;18.30;99.90;;;;;;4934345;29;20847;-72
2022/08/22 04:22:39;;;;;;;3.97;3.57;;;18.30;99.90;;;;;;4934489;28;20451;-72
2022/08/22 04:25:35;;;;;;;5.27;4.03;;;18.30;99.90;;;;;;4933652;29;20615;-72
2022/08/22 04:28:43;;;;;;;5.07;4.10;;;18.30;99.90;;;;;;4934670;29;20992;-72
2022/08/22 04:31:51;;;;;;;6.23;4.40;;;18.30;99.90;;;;;;4933006;29;20543;-72
2022/08/22 04:34:58;;;;;;;4.80;3.93;;;18.30;99.90;;;;;;4934335;28;20476;-73
2022/08/22 04:37:52;;;;;;;8.43;4.30;;;18.30;99.90;;;;;;4933585;29;20459;-72
2022/08/22 04:44:33;;;;;;;;;;;;;;;;;;;;;
2022/08/22 04:47:29;;;;;;;7.90;5.20;;;18.30;99.90;;;;;;4925764;29;20845;-72
2022/08/22 04:50:29;;;;;;;11.03;5.07;;;18.30;99.90;;;;;;4928139;29;20472;-73
2022/08/22 04:53:46;;;;;;;8.40;4.27;;;18.30;99.90;;;;;;4926555;29;20456;-72
2022/08/22 04:57:12;;;;;;;7.20;4.43;;;18.30;99.90;;;;;;4931528;29;20460;-72
2022/08/22 05:00:37;;;;;;;6.53;4.10;;;18.30;99.90;;;;;;4928068;29;20456;-73
2022/08/22 05:03:52;;;;;;;6.50;4.17;;;18.30;99.90;;;;;;4931480;29;20472;-73
2022/08/22 05:06:46;;;;;;;9.50;4.70;;;18.30;99.90;;;;;;4925000;29;20529;-69
2022/08/22 05:09:38;;;;;;;9.27;4.50;;;18.30;99.90;;;;;;4927504;29;21583;-69
2022/08/22 05:12:43;;;;;;;7.20;4.80;;;18.30;99.90;;;;;;4925691;29;20960;-69
2022/08/22 05:16:04;;;;;;;5.93;3.90;;;18.30;99.90;;;;;;4925631;29;20585;-69
2022/08/22 05:19:21;;;;;;;6.43;4.33;;;18.30;99.90;;;;;;4927377;29;20995;-69
2022/08/22 05:22:24;;;;;;;5.13;3.87;;;18.30;99.90;;;;;;4928285;28;20499;-69
2022/08/22 05:25:17;;;;;;;8.27;4.00;;;18.30;99.90;;;;;;4920572;29;20656;-69
2022/08/22 05:28:13;;;;;;;4.63;3.83;;;18.30;99.90;;;;;;4918253;29;20482;-73
2022/08/22 05:31:08;;;;;;;8.50;4.20;;;18.30;99.90;;;;;;4902297;29;20596;-73
2022/08/22 05:34:02;;;;;;;7.37;4.57;;;18.30;99.90;;;;;;4902473;29;20466;-73
2022/08/22 05:36:56;;;;;;;4.73;4.23;;;18.30;99.90;;;;;;4913451;29;20997;-73
2022/08/22 05:39:52;;;;;;;6.87;4.60;;;18.30;99.90;;;;;;4919647;29;20452;-73
2022/08/22 05:42:44;;;;;;;8.63;4.80;;;18.30;99.90;;;;;;4919705;29;20511;-73
2022/08/22 05:45:38;;;;;;;6.50;4.83;;;18.30;99.90;;;;;;4910156;29;20472;-73
2022/08/22 05:48:37;;;;;;;7.00;4.80;;;18.30;99.90;;;;;;4915936;28;20495;-73
2022/08/22 05:51:30;;;;;;;6.00;4.23;;;18.40;99.90;;;;;;4921785;29;20494;-73
2022/08/22 05:54:24;;;;;;;10.17;4.40;;;18.30;99.90;;;;;;4909821;29;20980;-73
2022/08/22 05:57:30;;;;;;;4.50;4.10;;;18.40;99.90;;;;;;4918297;29;20460;-73
2022/08/22 06:00:20;;;;;;;4.73;3.97;;;18.30;99.90;;;;;;4919911;29;20620;-74
2022/08/22 06:03:16;;;;;;;5.27;4.60;;;18.40;99.90;;;;;;4920621;29;20559;-73
2022/08/22 06:06:16;;;;;;;8.13;4.40;;;18.40;99.90;;;;;;4924567;29;20571;-73
2022/08/22 06:09:08;;;;;;;7.80;4.60;;;18.40;99.90;;;;;;4909547;29;20449;-73
2022/08/22 06:12:02;;;;;;;6.73;4.60;;;18.40;99.90;;;;;;4903424;29;20475;-73
2022/08/22 06:14:59;;;;;;;6.30;4.20;;;18.40;99.90;;;;;;4912172;29;20492;-73
2022/08/22 06:17:50;;;;;;;4.90;4.40;;;18.40;99.90;;;;;;4918201;29;20472;-73
2022/08/22 06:20:45;;;;;;;5.70;4.30;;;18.40;99.90;;;;;;4921109;29;20471;-73
2022/08/22 06:23:38;;;;;;;6.50;4.13;;;18.50;99.90;;;;;;4922144;28;20464;-73
2022/08/22 06:26:33;;;;;;;6.97;4.60;;;18.50;99.90;;;;;;4914440;29;20866;-73
2022/08/22 06:29:37;;;;;;;5.63;4.40;;;18.50;99.90;;;;;;4915490;29;20580;-73
2022/08/22 06:32:30;;;;;;;5.00;4.47;;;18.60;99.90;;;;;;4917013;29;20493;-73
2022/08/22 06:39:01;;;;;;;5.07;4.53;;;18.70;99.90;;;;;;4928236;29;20464;-73
2022/08/22 06:41:52;;;;;;;8.97;5.00;;;18.70;99.90;;;;;;4927344;29;20546;-72
2022/08/22 06:44:48;;;;;;;6.10;3.93;;;18.70;99.90;;;;;;4923331;29;21075;-73
2022/08/22 06:47:42;;;;;;;6.43;4.50;;;18.70;99.90;;;;;;4924675;29;20552;-74
2022/08/22 06:50:41;;;;;;;8.53;4.50;;;18.70;99.90;;;;;;4921780;29;20841;-73
2022/08/22 06:53:35;;;;;;;5.37;3.97;;;18.80;99.90;;;;;;4920196;29;20584;-73
2022/08/22 06:56:33;;;;;;;4.63;3.87;;;18.80;99.90;;;;;;4913298;29;20487;-74
2022/08/22 06:59:25;;;;;;;7.47;4.03;;;18.80;99.90;;;;;;4916550;29;20598;-74
2022/08/22 07:02:22;;;;;;;6.93;3.87;;;18.80;99.90;;;;;;4913090;29;20654;-73
2022/08/22 07:05:19;;;;;;;8.13;4.00;;;18.90;99.90;;;;;;4920536;29;20487;-73
2022/08/22 07:08:13;;;;;;;5.80;3.63;;;18.90;99.90;;;;;;4921977;29;20522;-73
2022/08/22 07:11:10;;;;;;;3.90;3.50;;;18.90;99.90;;;;;;4924061;29;21016;-73
2022/08/22 07:14:02;;;;;;;7.27;3.60;;;19.00;99.90;;;;;;4923288;29;20491;-74
2022/08/22 07:16:57;;;;;;;5.53;4.00;;;19.00;99.90;;;;;;4927137;29;20463;-73
2022/08/22 07:19:53;;;;;;;4.67;3.13;;;19.10;99.90;;;;;;4924751;29;20495;-73
2022/08/22 07:22:53;;;;;;;4.03;3.67;;;19.10;99.90;;;;;;4927792;29;20658;-73
2022/08/22 07:25:52;;;;;;;7.00;3.97;;;19.20;99.90;;;;;;4923921;29;20507;-73
2022/08/22 07:28:46;;;;;;;3.63;3.33;;;19.20;99.90;;;;;;4921901;29;20570;-73
2022/08/22 07:31:53;;;;;;;4.70;3.80;;;19.30;99.90;;;;;;4927240;29;20487;-73
2022/08/22 07:34:52;;;;;;;6.40;3.70;;;19.30;99.90;;;;;;4919393;28;21151;-74
2022/08/22 07:37:53;;;;;;;5.00;3.10;;;19.30;99.90;;;;;;4920459;29;20502;-73
2022/08/22 07:40:48;;;;;;;4.50;3.50;;;19.40;99.90;;;;;;4903046;29;20550;-74
2022/08/22 07:43:42;;;;;;;4.30;3.10;;;19.40;99.90;;;;;;4918500;29;20539;-73
2022/08/22 07:46:35;;;;;;;4.60;3.40;;;19.50;99.90;;;;;;4921171;28;20487;-73
2022/08/22 07:49:26;;;;;;;3.97;2.97;;;19.60;99.90;;;;;;4920399;29;21004;-73
2022/08/22 07:52:15;;;;;;;5.30;3.40;;;19.60;99.90;;;;;;4919634;29;20848;-73
2022/08/22 07:55:14;;;;;;;5.93;3.23;;;19.60;99.90;;;;;;4924520;29;20512;-73
2022/08/22 07:58:07;;;;;;;7.87;4.00;;;19.70;99.90;;;;;;4930081;28;20452;-73
2022/08/22 08:00:57;;;;;;;4.53;3.47;;;19.70;99.90;;;;;;4926711;29;20542;-73
2022/08/22 08:03:53;;;;;;;4.53;3.73;;;19.70;99.90;;;;;;4922940;29;20499;-73
2022/08/22 08:06:41;;;;;;;6.50;3.33;;;19.80;99.90;;;;;;4931799;29;20459;-73
2022/08/22 08:09:32;;;;;;;4.70;3.40;;;19.80;99.90;;;;;;4930809;29;20654;-73
2022/08/22 08:12:33;;;;;;;4.63;2.93;;;19.90;99.90;;;;;;4929268;29;20559;-73
2022/08/22 08:15:23;;;;;;;3.53;3.00;;;19.90;99.90;;;;;;4931149;29;20638;-73
2022/08/22 08:18:18;;;;;;;4.90;3.00;;;19.90;99.90;;;;;;4919469;29;23088;-73
2022/08/22 08:21:24;;;;;;;4.77;3.37;;;20.00;99.90;;;;;;4919015;29;20462;-73
2022/08/22 08:24:16;;;;;;;5.63;3.20;;;20.10;99.90;;;;;;4924923;29;20538;-73
2022/08/22 08:30:18;;;;;;;3.80;3.10;;;20.20;99.90;;;;;;4926560;29;20460;-73
2022/08/22 08:33:11;;;;;;;6.80;3.30;;;20.30;99.90;;;;;;4928725;29;20563;-73
2022/08/22 08:36:27;;;;;;;5.63;3.67;;;20.40;99.90;;;;;;4923992;29;20483;-73
2022/08/22 08:39:24;;;;;;;4.73;3.57;;;20.40;99.90;;;;;;4924414;29;20487;-74
2022/08/22 08:46:10;;;;;;;5.40;3.60;;;20.60;99.90;;;;;;4920928;29;20491;-74
2022/08/22 08:49:25;;;;;;;3.87;3.40;;;20.70;99.90;;;;;;4924751;29;20570;-74
2022/08/22 08:52:35;;;;;;;6.30;3.73;;;20.80;99.90;;;;;;4920055;29;20479;-74
2022/08/22 08:55:38;;;;;;;6.60;3.53;;;20.80;99.90;;;;;;4925968;29;20516;-74
2022/08/22 08:58:37;;;;;;;7.13;3.77;;;20.90;99.90;;;;;;4925208;28;20459;-74
2022/08/22 09:02:01;;;;;;;5.10;3.33;;;21.00;99.90;;;;;;4925145;29;20466;-74
2022/08/22 09:05:29;;;;;;;5.23;3.20;;;21.10;99.90;;;;;;4923551;29;20512;-71
2022/08/22 09:08:43;;;;;;;5.70;3.33;;;21.20;99.90;;;;;;4921886;29;20489;-73
2022/08/22 09:12:11;;;;;;;4.63;2.90;;;21.30;99.90;;;;;;4926618;29;20474;-73
2022/08/22 09:15:32;;;;;;;4.93;3.20;;;21.40;99.90;;;;;;4921903;29;20501;-73
2022/08/22 09:18:48;;;;;;;4.03;2.97;;;21.40;99.90;;;;;;4912316;29;20457;-73
2022/08/22 09:22:16;;;;;;;3.33;3.03;;;21.60;99.90;;;;;;4918795;28;20455;-73
2022/08/22 09:25:22;;;;;;;6.00;3.00;;;21.60;99.90;;;;;;4913088;29;20534;-73
2022/08/22 09:28:16;;;;;;;4.70;2.93;;;21.70;99.90;;;;;;4916936;29;21042;-73
2022/08/22 09:31:30;;;;;;;3.70;3.40;;;21.80;99.90;;;;;;4914378;29;20559;-73
2022/08/22 09:34:51;;;;;;;6.40;3.10;;;21.90;99.90;;;;;;4926810;29;20537;-73
2022/08/22 09:37:51;;;;;;;4.13;2.83;;;22.00;99.90;;;;;;4914794;29;20558;-75
2022/08/22 09:40:44;;;;;;;4.07;2.60;;;22.10;99.90;;;;;;4921991;29;20578;-73
2022/08/22 09:43:38;;;;;;;5.60;2.93;;;22.10;99.90;;;;;;4907357;29;20518;-73
2022/08/22 09:46:41;;;;;;;9.10;2.97;;;22.20;99.90;;;;;;4915596;29;20488;-73
2022/08/22 09:49:47;;;;;;;5.07;2.90;;;22.20;99.90;;;;;;4928919;29;20640;-73
2022/08/22 09:52:52;;;;;;;6.10;3.10;;;22.20;99.90;;;;;;4923839;29;20467;-73
2022/08/22 09:55:52;;;;;;;6.17;2.73;;;22.30;99.90;;;;;;4924037;29;20468;-73
2022/08/22 09:58:46;;;;;;;3.50;3.00;;;22.30;99.90;;;;;;4917578;29;20456;-73
2022/08/22 10:01:40;;;;;;;3.43;2.97;;;22.40;99.90;;;;;;4921930;28;20476;-73
2022/08/22 10:04:46;;;;;;;5.07;3.00;;;22.40;99.90;;;;;;4922213;28;20567;-73
2022/08/22 10:07:54;;;;;;;3.40;2.70;;;22.40;99.90;;;;;;4916049;29;20852;-73
2022/08/22 10:11:11;;;;;;;4.10;2.47;;;22.50;99.90;;;;;;4916242;29;20856;-73
2022/08/22 10:14:06;;;;;;;4.17;2.67;;;22.50;99.90;;;;;;4921291;29;20493;-73
2022/08/22 10:17:05;;;;;;;3.10;2.60;;;22.60;99.90;;;;;;4910790;29;20476;-73
2022/08/22 10:20:02;;;;;;;4.70;2.70;;;22.60;99.90;;;;;;4922510;29;20460;-73
2022/08/22 10:23:04;;;;;;;3.03;2.73;;;22.60;99.90;;;;;;4921473;29;20514;-72
2022/08/22 10:26:04;;;;;;;5.37;3.10;;;22.70;99.90;;;;;;4925457;29;21050;-70
2022/08/22 10:28:56;;;;;;;4.67;3.03;;;22.80;99.90;;;;;;4922363;29;20584;-69
2022/08/22 10:31:53;;;;;;;4.20;2.77;;;22.80;99.90;;;;;;4922437;29;20475;-70
2022/08/22 10:34:53;;;;;;;5.40;3.10;;;22.80;99.90;;;;;;4921836;29;20483;-71
2022/08/22 10:37:53;;;;;;;3.77;3.00;;;22.80;99.90;;;;;;4918386;29;20464;-70
2022/08/22 10:40:53;;;;;;;6.07;3.60;;;22.80;99.90;;;;;;4916846;29;20463;-70
2022/08/22 10:43:49;;;;;;;4.00;2.63;;;22.90;99.90;;;;;;4924921;28;20845;-70
2022/08/22 10:46:54;;;;;;;5.70;2.80;;;22.90;99.90;;;;;;4915671;29;20471;-73
2022/08/22 10:49:51;;;;;;;3.30;2.53;;;22.90;99.90;;;;;;4915651;29;20608;-73
2022/08/22 10:52:49;;;;;;;3.27;2.50;;;23.00;99.90;;;;;;4918168;29;20456;-73
2022/08/22 10:55:42;;;;;;;3.13;2.37;;;23.10;99.90;;;;;;4914698;28;21468;-73
2022/08/22 10:58:39;;;;;;;3.27;2.53;;;23.30;99.90;;;;;;4915038;29;20492;-73
2022/08/22 11:01:36;;;;;;;4.80;3.27;;;23.40;99.90;;;;;;4915965;29;20578;-73
2022/08/22 11:04:54;;;;;;;2.60;2.40;;;23.60;99.90;;;;;;4922830;29;20519;-73
2022/08/22 11:07:48;;;;;;;3.03;2.70;;;23.70;99.90;;;;;;4933955;29;20471;-73
2022/08/22 11:10:52;;;;;;;4.20;2.53;;;23.80;99.90;;;;;;4937085;29;20496;-74
2022/08/22 11:13:55;;;;;;;5.53;2.77;;;24.00;99.90;;;;;;4941782;29;20842;-74
2022/08/22 11:16:57;;;;;;;3.27;2.50;;;24.00;99.90;;;;;;4921712;29;20475;-74
2022/08/22 11:20:14;;;;;;;3.10;2.53;;;24.00;99.90;;;;;;4910946;29;20581;-73
2022/08/22 11:23:20;;;;;;;3.80;2.73;;;24.10;99.90;;;;;;4909341;29;20527;-73
2022/08/22 11:26:25;;;;;;;3.43;2.83;;;24.20;99.90;;;;;;4904125;29;20553;-74
2022/08/22 11:29:40;;;;;;;4.13;2.70;;;24.30;99.90;;;;;;4910193;29;20554;-73
2022/08/22 11:32:37;;;;;;;4.03;2.43;;;24.40;99.90;;;;;;4911156;29;20463;-73
2022/08/22 11:35:32;;;;;;;3.43;2.50;;;24.50;99.90;;;;;;4921108;29;20900;-73
2022/08/22 11:38:34;;;;;;;3.40;2.37;;;24.50;99.90;;;;;;4914049;29;20606;-73
2022/08/22 11:41:28;;;;;;;5.80;2.67;;;24.50;99.90;;;;;;4912675;29;20462;-73
2022/08/22 11:44:22;;;;;;;3.97;2.60;;;24.50;99.90;;;;;;4917721;29;20558;-73
2022/08/22 11:47:17;;;;;;;3.07;2.50;;;24.50;99.90;;;;;;4916961;29;20512;-73
2022/08/22 11:50:23;;;;;;;4.57;2.30;;;24.50;99.90;;;;;;4915770;29;20478;-73
2022/08/22 11:53:24;;;;;;;3.10;2.10;;;24.60;99.90;;;;;;4911923;29;20460;-73
2022/08/22 11:56:28;;;;;;;4.10;3.23;;;24.70;99.90;;;;;;4909534;29;20829;-73
2022/08/22 11:59:26;;;;;;;4.50;2.50;;;24.80;99.90;;;;;;4914840;29;20542;-73
2022/08/22 12:02:20;;;;;;;3.30;2.30;;;24.90;99.90;;;;;;4915532;29;20459;-74
2022/08/22 12:05:14;;;;;;;4.90;2.60;;;24.90;99.90;;;;;;4918715;29;20509;-73
2022/08/22 12:08:21;;;;;;;3.80;2.43;;;25.00;99.90;;;;;;4903395;29;20834;-74
2022/08/22 12:11:14;;;;;;;4.40;2.67;;;25.10;99.90;;;;;;4915295;29;20525;-74
2022/08/22 12:14:18;;;;;;;4.80;2.50;;;25.10;99.90;;;;;;4909659;29;21484;-74
2022/08/22 12:17:18;;;;;;;2.53;2.33;;;25.20;99.90;;;;;;4917336;28;20456;-75
2022/08/22 12:20:56;;;;;;;3.80;2.70;;;25.20;99.90;;;;;;4910926;29;20444;-73
2022/08/22 12:24:10;;;;;;;3.33;2.23;;;25.20;99.90;;;;;;4915125;29;20471;-74
2022/08/22 12:27:27;;;;;;;2.70;2.30;;;25.20;99.90;;;;;;4906763;29;20535;-73
2022/08/22 12:30:22;;;;;;;5.50;3.07;;;25.20;99.90;;;;;;4910805;29;20582;-73
2022/08/22 12:33:27;;;;;;;3.17;2.87;;;25.20;99.90;;;;;;4919673;29;21247;-73
2022/08/22 12:36:42;;;;;;;5.67;3.03;;;25.20;99.90;;;;;;4923761;29;20483;-73
2022/08/22 12:39:59;;;;;;;3.63;2.43;;;25.20;99.90;;;;;;4920996;29;21174;-73
2022/08/22 12:43:01;;;;;;;7.20;2.90;;;25.20;99.90;;;;;;4922951;29;20464;-73
2022/08/22 12:46:09;;;;;;;9.70;3.30;;;25.20;99.90;;;;;;4911946;29;20510;-75
2022/08/22 12:49:22;;;;;;;3.57;2.33;;;25.20;99.90;;;;;;4910596;29;20741;-72
2022/08/22 12:52:24;;;;;;;3.60;2.60;;;25.20;99.90;;;;;;4915905;29;20538;-72
2022/08/22 12:55:32;;;;;;;2.70;2.50;;;25.20;99.90;;;;;;4916291;29;20482;-72
2022/08/22 12:58:31;;;;;;;3.23;2.60;;;25.20;99.90;;;;;;4914506;29;20463;-72
2022/08/22 13:01:24;;;;;;;5.37;2.80;;;25.30;99.90;;;;;;4913431;29;21223;-73
2022/08/22 13:04:25;;;;;;;5.73;3.17;;;25.20;99.90;;;;;;4911692;29;20651;-72
2022/08/22 13:07:27;;;;;;;3.23;2.47;;;25.30;99.90;;;;;;4898109;29;20483;-73
2022/08/22 13:10:37;;;;;;;3.83;2.60;;;25.30;99.90;;;;;;4915295;28;20923;-72
2022/08/22 13:13:29;;;;;;;4.00;2.40;;;25.30;99.90;;;;;;4905241;29;20860;-72
2022/08/22 13:16:36;;;;;;;4.47;3.10;;;25.40;99.90;;;;;;4919200;28;20484;-72
2022/08/22 13:19:28;;;;;;;4.07;2.80;;;25.50;99.90;;;;;;4921661;29;20460;-72
2022/08/22 13:22:22;;;;;;;6.40;2.47;;;25.50;99.90;;;;;;4919673;29;20491;-73
2022/08/22 13:25:22;;;;;;;3.30;2.50;;;25.60;99.90;;;;;;4911606;28;20484;-72
2022/08/22 13:28:14;;;;;;;3.13;2.90;;;25.70;99.90;;;;;;4912685;29;20463;-72
2022/08/22 13:31:04;;;;;;;3.83;2.70;;;25.80;99.90;;;;;;4912428;29;20516;-74
2022/08/22 13:33:59;;;;;;;4.90;2.43;;;25.90;99.90;;;;;;4913546;28;20467;-75
2022/08/22 13:36:50;;;;;;;2.90;2.40;;;26.00;99.90;;;;;;4918731;29;20452;-74
2022/08/22 13:39:43;;;;;;;4.33;2.70;;;26.00;99.90;;;;;;4921515;29;20452;-74
2022/08/22 13:42:36;;;;;;;3.00;2.20;;;26.10;99.90;;;;;;4920664;29;20458;-75
2022/08/22 13:45:29;;;;;;;3.20;2.70;;;26.10;99.90;;;;;;4915980;28;20546;-74
2022/08/22 13:48:23;;;;;;;2.83;2.50;;;26.00;99.90;;;;;;4919024;28;20479;-74
2022/08/22 13:51:23;;;;;;;4.20;2.33;;;26.00;99.90;;;;;;4916297;29;20492;-75
2022/08/22 13:54:35;;;;;;;3.27;2.30;;;25.90;99.90;;;;;;4916385;28;20463;-75
2022/08/22 13:57:35;;;;;;;4.10;2.50;;;25.90;99.90;;;;;;4918320;28;20455;-75
2022/08/22 14:00:58;;;;;;;3.13;2.20;;;25.80;99.90;;;;;;4915455;29;20472;-75
2022/08/22 14:03:51;;;;;;;2.60;2.40;;;25.80;99.90;;;;;;4923287;29;20508;-75
2022/08/22 14:06:52;;;;;;;2.53;2.20;;;25.80;99.90;;;;;;4912266;29;20468;-75
2022/08/22 14:09:50;;;;;;;4.97;2.23;;;25.70;99.90;;;;;;4920522;29;20522;-75
2022/08/22 14:13:06;;;;;;;2.57;2.37;;;25.70;99.90;;;;;;4923658;29;20476;-76
2022/08/22 14:16:00;;;;;;;2.77;2.23;;;25.60;99.90;;;;;;4920827;28;21537;-75
2022/08/22 14:18:52;;;;;;;3.20;2.37;;;25.60;99.90;;;;;;4928819;29;20459;-75
2022/08/22 14:21:45;;;;;;;3.23;2.07;;;25.50;99.90;;;;;;4924384;29;20476;-75
2022/08/22 14:24:39;;;;;;;2.70;2.50;;;25.50;99.90;;;;;;4927653;29;20479;-75
2022/08/22 14:27:35;;;;;;;3.87;2.60;;;25.50;99.90;;;;;;4930186;28;20491;-75
2022/08/22 14:30:31;;;;;;;3.50;2.17;;;25.40;99.90;;;;;;4919861;29;20483;-76
2022/08/22 14:33:22;;;;;;;3.70;2.50;;;25.40;99.90;;;;;;4919123;28;20520;-75
2022/08/22 14:36:16;;;;;;;4.13;2.80;;;25.40;99.90;;;;;;4918078;29;20487;-75
2022/08/22 14:39:10;;;;;;;4.20;2.43;;;25.50;99.90;;;;;;4925494;29;20460;-75
2022/08/22 14:42:08;;;;;;;3.23;2.50;;;25.70;99.90;;;;;;4921990;28;20600;-75
2022/08/22 14:45:05;;;;;;;3.57;2.97;;;25.80;99.90;;;;;;4923975;29;20604;-75
2022/08/22 14:47:57;;;;;;;3.33;2.50;;;26.10;99.90;;;;;;4921642;29;21011;-74
2022/08/22 14:51:10;;;;;;;2.33;2.10;;;26.50;99.90;;;;;;4921674;28;20476;-74
2022/08/22 14:54:13;;;;;;;3.67;2.53;;;27.10;99.90;;;;;;4926338;29;20472;-74
2022/08/22 14:57:14;;;;;;;2.40;2.17;;;27.90;99.90;;;;;;4920900;28;20467;-74
2022/08/22 15:00:11;;;;;;;3.87;2.10;;;28.80;99.90;;;;;;4929395;28;20467;-74
2022/08/22 15:03:15;;;;;;;3.63;2.33;;;29.20;99.90;;;;;;4925848;29;20542;-73
2022/08/22 15:06:08;;;;;;;2.50;2.30;;;29.20;99.90;;;;;;4927067;29;20483;-74
2022/08/22 15:08:59;;;;;;;3.10;2.17;;;29.20;99.90;;;;;;4926430;28;20475;-74
2022/08/22 15:11:56;;;;;;;3.47;3.03;;;29.00;99.90;;;;;;4927393;29;20488;-74
2022/08/22 15:14:48;;;;;;;2.93;2.37;;;28.90;99.90;;;;;;4925153;28;20476;-74
2022/08/22 15:17:42;;;;;;;2.00;1.90;;;28.80;99.90;;;;;;4928995;29;20460;-74
2022/08/22 15:20:37;;;;;;;4.20;2.47;;;28.60;99.90;;;;;;4927700;29;20968;-74
2022/08/22 15:23:43;;;;;;;2.47;2.13;;;28.30;99.90;;;;;;4920507;28;20468;-73
2022/08/22 15:26:51;;;;;;;2.97;2.60;;;28.10;99.90;;;;;;4912825;28;20491;-73
2022/08/22 15:29:51;;;;;;;3.57;2.60;;;28.10;99.90;;;;;;4918753;29;20493;-73
2022/08/22 15:32:41;;;;;;;4.30;2.27;;;28.00;99.90;;;;;;4917637;29;20936;-72
2022/08/22 15:35:31;;;;;;;4.33;2.53;;;27.80;99.90;;;;;;4922025;29;20480;-72
2022/08/22 15:38:26;;;;;;;4.10;2.60;;;27.80;99.90;;;;;;4916166;29;20966;-72
2022/08/22 15:41:37;;;;;;;3.23;2.53;;;27.70;99.90;;;;;;4907500;29;20464;-72
2022/08/22 15:44:31;;;;;;;3.30;2.30;;;27.60;99.90;;;;;;4917698;29;20513;-72
2022/08/22 15:47:33;;;;;;;4.50;2.80;;;27.40;99.90;;;;;;4915421;29;20498;-72
2022/08/22 15:50:33;;;;;;;2.83;2.30;;;27.30;99.90;;;;;;4912882;29;20463;-72
2022/08/22 15:53:26;;;;;;;2.50;2.30;;;27.20;99.90;;;;;;4907166;29;20492;-72
2022/08/22 15:56:27;;;;;;;2.77;2.53;;;27.10;99.90;;;;;;4926135;29;20491;-72
2022/08/22 15:59:32;;;;;;;2.60;2.40;;;27.00;99.90;;;;;;4920735;29;20511;-71
2022/08/22 16:02:55;;;;;;;5.93;2.70;;;26.80;99.90;;;;;;4918161;29;20511;-72
2022/08/22 16:05:51;;;;;;;5.33;2.90;;;26.70;99.90;;;;;;4931382;29;20479;-71
2022/08/22 16:08:50;;;;;;;2.80;2.20;;;26.60;99.90;;;;;;4921648;29;20459;-72
2022/08/22 16:11:39;;;;;;;9.30;3.00;;;26.50;99.90;;;;;;4918978;29;20478;-72
2022/08/22 16:14:48;;;;;;;5.70;2.90;;;26.50;99.90;;;;;;4927342;29;20509;-73
2022/08/22 16:17:44;;;;;;;3.80;2.73;;;26.50;99.90;;;;;;4924955;29;21072;-72